Time;durP1;ratioP1;P1;durP2;ratioP2;P2;SDS_P1;SDS_P2;PMS_P1;PMS_P2;Temp;Humidity;BMP_temperature;BMP_pressure;BME280_temperature;BME280_humidity;BME280_pressure;Samples;Min_cycle;Max_cycle;Signal;HPM_P1;HPM_P2
2022/12/13 04:03:04;;;;;;;;;;;-4.70;99.90;;;;;;4909345;29;20453;-71
2022/12/13 04:05:31;;;;;;;;;;;-4.70;99.90;;;;;;4910362;29;19934;-71
2022/12/13 04:07:58;;;;;;;;;;;-4.60;99.90;;;;;;4913564;29;20082;-69
2022/12/13 04:10:25;;;;;;;;;;;-4.70;99.90;;;;;;4912845;29;20429;-71
2022/12/13 04:15:36;;;;;;;;;;;-4.70;99.90;;;;;;4932829;29;19923;-68
2022/12/13 04:18:04;;;;;;;;;;;-4.60;99.90;;;;;;4930608;29;20428;-72
2022/12/13 04:20:31;;;;;;;;;;;-4.50;99.90;;;;;;4935255;29;20505;-73
2022/12/13 04:22:58;;;;;;;;;;;-4.40;99.90;;;;;;4936050;29;19927;-70
2022/12/13 04:25:26;;;;;;;;;;;-4.40;99.90;;;;;;4932351;29;19934;-70
2022/12/13 04:27:53;;;;;;;;;;;-4.40;99.90;;;;;;4932999;29;20017;-70
2022/12/13 04:30:19;;;;;;;;;;;-4.40;99.90;;;;;;4927666;29;20006;-71
2022/12/13 04:32:46;;;;;;;;;;;-4.30;99.90;;;;;;4935259;29;20033;-70
2022/12/13 04:35:14;;;;;;;;;;;-4.20;99.90;;;;;;4928599;29;19927;-71
2022/12/13 04:37:40;;;;;;;;;;;-4.10;99.90;;;;;;4935911;29;19969;-70
2022/12/13 04:40:09;;;;;;;;;;;-4.00;99.90;;;;;;4933009;29;20394;-70
2022/12/13 04:42:35;;;;;;;;;;;-3.90;99.90;;;;;;4936618;29;20362;-70
2022/12/13 04:45:02;;;;;;;;;;;-3.80;99.90;;;;;;4935734;29;20022;-70
2022/12/13 04:47:29;;;;;;;;;;;-3.70;99.90;;;;;;4935493;29;19926;-70
2022/12/13 04:49:55;;;;;;;;;;;-3.70;99.90;;;;;;4936164;29;20063;-71
2022/12/13 04:52:23;;;;;;;;;;;-3.60;99.90;;;;;;4936790;29;19970;-70
2022/12/13 04:54:50;;;;;;;;;;;-3.60;99.90;;;;;;4931347;29;19927;-72
2022/12/13 04:57:17;;;;;;;;;;;-3.60;99.90;;;;;;4935526;29;20022;-77
2022/12/13 04:59:45;;;;;;;;;;;-3.70;99.90;;;;;;4934891;29;20037;-73
2022/12/13 05:02:12;;;;;;;;;;;-3.70;99.90;;;;;;4931694;29;19927;-72
2022/12/13 05:04:39;;;;;;;;;;;-3.70;99.90;;;;;;4934679;29;20405;-71
2022/12/13 05:07:05;;;;;;;;;;;-3.70;99.90;;;;;;4940885;29;20494;-73
2022/12/13 05:09:34;;;;;;;;;;;-3.70;99.90;;;;;;4934759;29;19927;-69
2022/12/13 05:12:01;;;;;;;;;;;-3.70;99.90;;;;;;4935280;29;19954;-68
2022/12/13 05:14:28;;;;;;;;;;;-3.70;99.90;;;;;;4931677;29;19930;-68
2022/12/13 05:16:54;;;;;;;;;;;-3.70;99.90;;;;;;4931031;29;19926;-78
2022/12/13 05:19:21;;;;;;;;;;;-3.70;99.90;;;;;;4935183;29;19926;-70
2022/12/13 05:21:48;;;;;;;;;;;-3.70;99.90;;;;;;4928018;29;19986;-69
2022/12/13 05:24:15;;;;;;;;;;;-3.70;99.90;;;;;;4950666;28;19934;-70
2022/12/13 05:26:43;;;;;;;;;;;-3.80;99.90;;;;;;4935005;29;19933;-69
2022/12/13 05:29:11;;;;;;;;;;;-3.80;99.90;;;;;;4933588;29;19933;-72
2022/12/13 05:31:37;;;;;;;;;;;-3.80;99.90;;;;;;4934945;29;19974;-69
2022/12/13 05:34:04;;;;;;;;;;;-3.80;99.90;;;;;;4935097;29;19927;-69
2022/12/13 05:36:31;;;;;;;;;;;-3.80;99.90;;;;;;4931254;29;19931;-70
2022/12/13 05:38:58;;;;;;;;;;;-3.80;99.90;;;;;;4932287;29;20283;-69
2022/12/13 05:41:27;;;;;;;;;;;-3.80;99.90;;;;;;4939802;29;19927;-69
2022/12/13 05:43:55;;;;;;;;;;;-3.80;99.90;;;;;;4928660;29;19927;-70
2022/12/13 05:46:22;;;;;;;;;;;-3.70;99.90;;;;;;4938728;29;19926;-70
2022/12/13 05:48:49;;;;;;;;;;;-3.70;99.90;;;;;;4934626;29;19926;-70
2022/12/13 05:51:15;;;;;;;;;;;-3.70;99.90;;;;;;4930697;29;19930;-69
2022/12/13 05:53:42;;;;;;;;;;;-3.60;99.90;;;;;;4934813;29;19993;-71
2022/12/13 05:56:10;;;;;;;;;;;-3.60;99.90;;;;;;4934479;29;19971;-70
2022/12/13 05:58:37;;;;;;;;;;;-3.60;99.90;;;;;;4934611;29;19968;-70
2022/12/13 06:01:08;;;;;;;;;;;-3.60;99.90;;;;;;4933768;29;19927;-70
2022/12/13 06:03:35;;;;;;;;;;;-3.60;99.90;;;;;;4936650;29;19974;-69
2022/12/13 06:06:02;;;;;;;;;;;-3.50;99.90;;;;;;4934252;29;19927;-70
2022/12/13 06:08:29;;;;;;;;;;;-3.50;99.90;;;;;;4930051;29;19974;-70
2022/12/13 06:10:56;;;;;;;;;;;-3.50;99.90;;;;;;4933948;29;19933;-69
2022/12/13 06:13:23;;;;;;;;;;;-3.50;99.90;;;;;;4932584;29;19934;-69
2022/12/13 06:15:49;;;;;;;;;;;-3.50;99.90;;;;;;4930017;29;19982;-74
2022/12/13 06:18:18;;;;;;;;;;;-3.50;99.90;;;;;;4933371;29;19927;-68
2022/12/13 06:20:45;;;;;;;;;;;-3.50;99.90;;;;;;4929156;29;19934;-70
2022/12/13 06:23:11;;;;;;;;;;;-3.50;99.90;;;;;;4933611;29;19999;-72
2022/12/13 06:25:38;;;;;;;;;;;-3.50;99.90;;;;;;4933739;29;19926;-70
2022/12/13 06:28:05;;;;;;;;;;;-3.50;99.90;;;;;;4932052;29;19951;-69
2022/12/13 06:30:32;;;;;;;;;;;-3.50;99.90;;;;;;4928573;29;20394;-69
2022/12/13 06:32:58;;;;;;;;;;;-3.50;99.90;;;;;;4933148;29;19931;-70
2022/12/13 06:35:27;;;;;;;;;;;-3.50;99.90;;;;;;4933557;29;19927;-69
2022/12/13 06:37:54;;;;;;;;;;;-3.40;99.90;;;;;;4930373;29;19964;-70
2022/12/13 06:40:20;;;;;;;;;;;-3.40;99.90;;;;;;4927346;29;19930;-71
2022/12/13 06:42:48;;;;;;;;;;;-3.40;99.90;;;;;;4933460;29;20408;-70
2022/12/13 06:45:15;;;;;;;;;;;-3.40;99.90;;;;;;4933289;29;19935;-71
2022/12/13 06:47:41;;;;;;;;;;;-3.50;99.90;;;;;;4931841;29;19927;-69
2022/12/13 06:50:08;;;;;;;;;;;-3.50;99.90;;;;;;4937867;29;20390;-69
2022/12/13 06:52:36;;;;;;;;;;;-3.40;99.90;;;;;;4928202;29;19931;-70
2022/12/13 06:55:04;;;;;;;;;;;-3.50;99.90;;;;;;4932986;29;19927;-69
2022/12/13 06:57:31;;;;;;;;;;;-3.50;99.90;;;;;;4932968;29;19931;-70
2022/12/13 06:59:58;;;;;;;;;;;-3.50;99.90;;;;;;4932921;29;20346;-74
2022/12/13 07:02:25;;;;;;;;;;;-3.60;99.90;;;;;;4934069;29;19927;-68
2022/12/13 07:04:52;;;;;;;;;;;-3.60;99.90;;;;;;4933685;29;19926;-69
2022/12/13 07:07:19;;;;;;;;;;;-3.70;99.90;;;;;;4949602;29;19926;-69
2022/12/13 07:09:47;;;;;;;;;;;-3.80;99.90;;;;;;4931203;29;19926;-69
2022/12/13 07:12:13;;;;;;;;;;;-3.90;99.90;;;;;;4935361;29;20343;-69
2022/12/13 07:14:40;;;;;;;;;;;-3.90;99.90;;;;;;4931053;29;19934;-69
2022/12/13 07:17:07;;;;;;;;;;;-4.00;99.90;;;;;;4932011;29;19926;-70
2022/12/13 07:19:34;;;;;;;;;;;-4.00;99.90;;;;;;4929684;29;19931;-70
2022/12/13 07:22:01;;;;;;;;;;;-4.10;99.90;;;;;;4930214;29;19930;-69
2022/12/13 07:24:28;;;;;;;;;;;-4.10;99.90;;;;;;4928685;29;20394;-68
2022/12/13 07:26:56;;;;;;;;;;;-4.10;99.90;;;;;;4929762;29;19957;-71
2022/12/13 07:29:23;;;;;;;;;;;-4.10;99.90;;;;;;4931413;29;19927;-69
2022/12/13 07:31:49;;;;;;;;;;;-4.20;99.90;;;;;;4932739;29;19935;-70
2022/12/13 07:34:16;;;;;;;;;;;-4.20;99.90;;;;;;4932178;29;20364;-69
2022/12/13 07:36:43;;;;;;;;;;;-4.20;99.90;;;;;;4932676;29;19927;-69
2022/12/13 07:39:10;;;;;;;;;;;-4.20;99.90;;;;;;4929711;29;19927;-68
2022/12/13 07:41:37;;;;;;;;;;;-4.20;99.90;;;;;;4932290;29;20282;-69
2022/12/13 07:44:05;;;;;;;;;;;-4.10;99.90;;;;;;4928200;29;19926;-69
2022/12/13 07:46:34;;;;;;;;;;;-4.10;99.90;;;;;;4932328;29;20393;-70
2022/12/13 07:49:01;;;;;;;;;;;-4.20;99.90;;;;;;4928293;29;19927;-69
2022/12/13 07:51:28;;;;;;;;;;;-4.20;99.90;;;;;;4928489;29;19927;-71
2022/12/13 07:53:54;;;;;;;;;;;-4.20;99.90;;;;;;4928396;29;19978;-69
2022/12/13 07:56:21;;;;;;;;;;;-4.20;99.90;;;;;;4932659;29;19991;-69
2022/12/13 07:58:48;;;;;;;;;;;-4.20;99.90;;;;;;4927807;29;19958;-69
2022/12/13 08:01:16;;;;;;;;;;;-4.10;99.90;;;;;;4925813;29;20717;-68
2022/12/13 08:03:45;;;;;;;;;;;-4.10;99.90;;;;;;4931146;29;20313;-69
2022/12/13 08:06:12;;;;;;;;;;;-4.10;99.90;;;;;;4931315;29;19931;-69
2022/12/13 08:08:39;;;;;;;;;;;-4.00;99.90;;;;;;4934215;29;20037;-70
2022/12/13 08:11:06;;;;;;;;;;;-4.00;99.90;;;;;;4936842;29;20291;-69
2022/12/13 08:13:34;;;;;;;;;;;-4.00;99.90;;;;;;4932824;29;20414;-68
2022/12/13 08:16:01;;;;;;;;;;;-4.00;99.90;;;;;;4941389;29;19935;-70
2022/12/13 08:18:29;;;;;;;;;;;-3.90;99.90;;;;;;4928089;29;19976;-70
2022/12/13 08:20:59;;;;;;;;;;;-3.80;99.90;;;;;;4925517;29;20290;-70
2022/12/13 08:23:26;;;;;;;;;;;-3.80;99.90;;;;;;4930424;29;20041;-68
2022/12/13 08:25:54;;;;;;;;;;;-3.70;99.90;;;;;;4945056;29;20394;-69
2022/12/13 08:28:21;;;;;;;;;;;-3.60;99.90;;;;;;4938033;29;20368;-68
2022/12/13 08:30:48;;;;;;;;;;;-3.60;99.90;;;;;;4932327;29;19933;-70
2022/12/13 08:33:15;;;;;;;;;;;-3.50;99.90;;;;;;4928389;29;19998;-70
2022/12/13 08:35:43;;;;;;;;;;;-3.40;99.90;;;;;;4925990;29;19954;-68
2022/12/13 08:38:10;;;;;;;;;;;-3.20;99.90;;;;;;4928879;29;19927;-68
2022/12/13 08:40:37;;;;;;;;;;;-3.20;99.90;;;;;;4931530;29;20414;-69
2022/12/13 08:43:05;;;;;;;;;;;-3.20;99.90;;;;;;4933133;29;20394;-69
2022/12/13 08:45:33;;;;;;;;;;;-3.10;99.90;;;;;;4932393;29;19931;-69
2022/12/13 08:48:00;;;;;;;;;;;-3.10;99.90;;;;;;4931651;29;20422;-69
2022/12/13 08:50:27;;;;;;;;;;;-3.00;99.90;;;;;;4929873;29;20284;-69
2022/12/13 08:52:56;;;;;;;;;;;-3.00;99.90;;;;;;4928653;29;19974;-69
2022/12/13 08:55:22;;;;;;;;;;;-3.00;99.90;;;;;;4925550;29;19927;-69
2022/12/13 08:57:49;;;;;;;;;;;-2.90;99.90;;;;;;4930095;29;19927;-68
2022/12/13 09:00:17;;;;;;;;;;;-2.80;99.90;;;;;;4926668;29;19978;-67
2022/12/13 09:02:43;;;;;;;;;;;-2.80;99.90;;;;;;4927342;29;19974;-68
2022/12/13 09:05:11;;;;;;;;;;;-2.70;99.90;;;;;;4935090;29;19926;-69
2022/12/13 09:07:39;;;;;;;;;;;-2.60;99.90;;;;;;4933619;29;19931;-72
2022/12/13 09:10:08;;;;;;;;;;;-2.60;99.90;;;;;;4932322;29;19927;-69
2022/12/13 09:12:36;;;;;;;;;;;-2.70;99.90;;;;;;4923035;29;20452;-69
2022/12/13 09:15:03;;;;;;;;;;;-2.60;99.90;;;;;;4932021;29;20025;-69
2022/12/13 09:17:32;;;;;;;;;;;-2.60;99.90;;;;;;4937568;29;19930;-69
2022/12/13 09:19:58;;;;;;;;;;;-2.50;99.90;;;;;;4934905;29;19932;-68
2022/12/13 09:22:25;;;;;;;;;;;-2.50;99.90;;;;;;4929577;29;19927;-69
2022/12/13 09:24:52;;;;;;;;;;;-2.40;99.90;;;;;;4933203;29;19983;-70
2022/12/13 09:27:20;;;;;;;;;;;-2.40;99.90;;;;;;4931132;29;20338;-69
2022/12/13 09:29:47;;;;;;;;;;;-2.30;99.90;;;;;;4934401;29;20399;-69
2022/12/13 09:32:14;;;;;;;;;;;-2.20;99.90;;;;;;4934336;29;20454;-69
2022/12/13 09:34:41;;;;;;;;;;;-2.00;99.90;;;;;;4933249;29;19927;-69
2022/12/13 09:37:10;;;;;;;;;;;-1.90;99.90;;;;;;4930587;29;20012;-68
2022/12/13 09:39:37;;;;;;;;;;;-1.70;99.90;;;;;;4931873;29;19935;-68
2022/12/13 09:42:04;;;;;;;;;;;-1.50;99.90;;;;;;4933983;29;19934;-68
2022/12/13 09:44:34;;;;;;;;;;;-1.50;99.90;;;;;;4931347;29;20402;-68
2022/12/13 09:47:01;;;;;;;;;;;-1.30;99.90;;;;;;4934418;29;19927;-69
2022/12/13 09:49:30;;;;;;;;;;;-1.30;99.90;;;;;;4934484;29;19982;-68
2022/12/13 09:51:58;;;;;;;;;;;-1.20;99.90;;;;;;4935367;29;20453;-69
2022/12/13 09:54:25;;;;;;;;;;;-1.10;99.90;;;;;;4934851;29;20378;-70
2022/12/13 09:56:53;;;;;;;;;;;-1.00;99.90;;;;;;4934972;29;19982;-69
2022/12/13 09:59:23;;;;;;;;;;;-1.10;99.90;;;;;;4932080;29;19927;-67
2022/12/13 10:01:51;;;;;;;;;;;-1.20;99.90;;;;;;4934687;29;19927;-68
2022/12/13 10:04:18;;;;;;;;;;;-1.30;99.90;;;;;;4934296;29;19927;-68
2022/12/13 10:06:45;;;;;;;;;;;-1.20;99.90;;;;;;4935733;29;19935;-68
2022/12/13 10:09:13;;;;;;;;;;;-1.10;99.90;;;;;;4932079;29;20025;-69
2022/12/13 10:11:46;;;;;;;;;;;-0.90;99.90;;;;;;4934676;29;20394;-69
2022/12/13 10:14:16;;;;;;;;;;;-0.80;99.90;;;;;;4935954;29;19935;-69
2022/12/13 10:16:45;;;;;;;;;;;-0.60;99.90;;;;;;4934176;29;19930;-69
2022/12/13 10:19:15;;;;;;;;;;;-0.40;99.90;;;;;;4933115;29;19927;-69
2022/12/13 10:21:43;;;;;;;;;;;0.50;99.90;;;;;;4923566;29;19934;-68
2022/12/13 10:24:13;;;;;;;;;;;2.60;99.90;;;;;;4927137;29;19966;-69
2022/12/13 10:26:40;;;;;;;;;;;3.90;99.90;;;;;;4934030;29;20294;-69
2022/12/13 10:29:08;;;;;;;;;;;4.70;99.90;;;;;;4933492;29;19931;-70
2022/12/13 10:31:38;;;;;;;;;;;7.00;99.90;;;;;;4935091;29;19926;-69
2022/12/13 10:34:05;;;;;;;;;;;7.00;99.90;;;;;;4934822;29;19927;-69
2022/12/13 10:36:35;;;;;;;;;;;6.80;99.90;;;;;;4934439;29;19926;-69
2022/12/13 10:39:02;;;;;;;;;;;7.30;99.90;;;;;;4928057;29;20406;-69
2022/12/13 10:41:31;;;;;;;;;;;8.30;99.90;;;;;;4930478;29;19934;-68
2022/12/13 10:44:08;;;;;;;;;;;10.60;99.90;;;;;;4926614;29;19963;-67
2022/12/13 10:46:35;;;;;;;;;;;11.00;99.90;;;;;;4934253;29;19927;-68
2022/12/13 10:49:01;;;;;;;;;;;11.20;99.90;;;;;;4932541;29;19963;-67
2022/12/13 10:51:37;;;;;;;;;;;11.10;99.90;;;;;;4934230;29;19931;-68
2022/12/13 10:54:06;;;;;;;;;;;11.80;99.90;;;;;;4933995;29;19931;-68
2022/12/13 10:56:35;;;;;;;;;;;13.10;99.90;;;;;;4932681;29;19943;-68
2022/12/13 10:59:09;;;;;;;;;;;13.20;99.90;;;;;;4923455;29;20350;-68
2022/12/13 11:01:36;;;;;;;;;;;13.60;99.90;;;;;;4929349;29;19931;-67
2022/12/13 11:04:04;;;;;;;;;;;13.50;99.90;;;;;;4931863;29;19927;-66
2022/12/13 11:06:40;;;;;;;;;;;13.90;99.90;;;;;;4924241;29;19926;-67
2022/12/13 11:09:14;;;;;;;;;;;12.10;99.90;;;;;;4925758;29;20378;-68
2022/12/13 11:11:42;;;;;;;;;;;9.90;99.90;;;;;;4932122;29;20372;-67
2022/12/13 11:14:17;;;;;;;;;;;7.90;99.90;;;;;;4924845;29;19927;-69
2022/12/13 11:16:45;;;;;;;;;;;5.70;99.90;;;;;;4931888;29;19938;-71
2022/12/13 11:19:17;;;;;;;;;;;5.80;99.90;;;;;;4925753;29;19927;-69
2022/12/13 11:21:47;;;;;;;;;;;7.00;99.90;;;;;;4933628;29;20004;-66
2022/12/13 11:24:20;;;;;;;;;;;9.10;99.90;;;;;;4934542;29;20002;-67
2022/12/13 11:26:50;;;;;;;;;;;10.70;99.90;;;;;;4930486;29;19927;-67
2022/12/13 11:29:36;;;;;;;;;;;9.00;99.90;;;;;;4935010;29;19927;-67
2022/12/13 11:32:07;;;;;;;;;;;11.30;99.90;;;;;;4933586;29;20064;-67
2022/12/13 11:34:37;;;;;;;;;;;13.60;99.90;;;;;;4930491;29;19935;-67
2022/12/13 11:37:11;;;;;;;;;;;11.40;99.90;;;;;;4933177;29;20303;-68
2022/12/13 11:39:41;;;;;;;;;;;11.60;99.90;;;;;;4928592;29;19927;-81
2022/12/13 11:42:12;;;;;;;;;;;12.30;99.90;;;;;;4932305;29;19927;-67
2022/12/13 11:44:43;;;;;;;;;;;11.50;99.90;;;;;;4929598;29;19935;-69
2022/12/13 11:47:14;;;;;;;;;;;11.00;99.90;;;;;;4933379;29;19966;-69
2022/12/13 11:49:41;;;;;;;;;;;9.80;99.90;;;;;;4932778;29;19975;-69
2022/12/13 11:52:13;;;;;;;;;;;10.00;99.90;;;;;;4930973;29;20002;-69
2022/12/13 11:54:46;;;;;;;;;;;10.10;99.90;;;;;;4934225;29;19931;-72
2022/12/13 11:57:16;;;;;;;;;;;11.00;99.90;;;;;;4933090;29;20394;-70
2022/12/13 11:59:45;;;;;;;;;;;10.40;99.90;;;;;;4931437;29;19927;-72
2022/12/13 12:02:16;;;;;;;;;;;10.10;99.90;;;;;;4932804;29;19934;-66
2022/12/13 12:04:45;;;;;;;;;;;11.40;99.90;;;;;;4928069;29;20355;-71
2022/12/13 12:07:13;;;;;;;;;;;12.70;99.90;;;;;;4933834;29;19953;-69
2022/12/13 12:09:41;;;;;;;;;;;13.40;99.90;;;;;;4933886;29;19931;-70
2022/12/13 12:12:14;;;;;;;;;;;13.70;99.90;;;;;;4937541;29;19931;-70
2022/12/13 12:14:43;;;;;;;;;;;13.60;99.90;;;;;;4933877;29;20363;-68
2022/12/13 12:17:12;;;;;;;;;;;11.20;99.90;;;;;;4934034;29;20450;-67
2022/12/13 12:19:40;;;;;;;;;;;9.40;99.90;;;;;;4932303;29;20460;-67
2022/12/13 12:22:15;;;;;;;;;;;8.80;99.90;;;;;;4928915;29;19927;-70
2022/12/13 12:24:48;;;;;;;;;;;7.30;99.90;;;;;;4928210;29;19926;-70
2022/12/13 12:27:21;;;;;;;;;;;6.10;99.90;;;;;;4928543;29;19941;-70
2022/12/13 12:30:00;;;;;;;;;;;5.30;99.90;;;;;;4931388;29;19927;-70
2022/12/13 12:32:31;;;;;;;;;;;5.00;99.90;;;;;;4931809;29;19927;-71
2022/12/13 12:35:04;;;;;;;;;;;4.50;99.90;;;;;;4927821;29;19979;-70
2022/12/13 12:37:37;;;;;;;;;;;3.90;99.90;;;;;;4935268;29;19927;-70
2022/12/13 12:40:15;;;;;;;;;;;3.40;99.90;;;;;;4934988;29;19926;-71
2022/12/13 12:42:50;;;;;;;;;;;3.50;99.90;;;;;;4936753;29;19931;-71
2022/12/13 12:45:23;;;;;;;;;;;3.50;99.90;;;;;;4934393;29;19927;-71
2022/12/13 12:48:00;;;;;;;;;;;3.60;99.90;;;;;;4939919;29;19927;-71
2022/12/13 12:50:38;;;;;;;;;;;3.60;99.90;;;;;;4926564;29;19930;-71
2022/12/13 12:53:21;;;;;;;;;;;3.60;99.90;;;;;;4929383;29;20081;-70
2022/12/13 12:55:52;;;;;;;;;;;3.60;99.90;;;;;;4930499;29;19926;-70
2022/12/13 12:58:23;;;;;;;;;;;3.50;99.90;;;;;;4950790;28;20485;-69
2022/12/13 13:00:55;;;;;;;;;;;3.20;99.90;;;;;;4931512;29;20406;-70
2022/12/13 13:03:24;;;;;;;;;;;3.10;99.90;;;;;;4933414;29;19927;-69
2022/12/13 13:05:53;;;;;;;;;;;3.10;99.90;;;;;;4930254;29;19930;-69
2022/12/13 13:08:22;;;;;;;;;;;3.10;99.90;;;;;;4934527;29;19927;-70
2022/12/13 13:10:49;;;;;;;;;;;3.10;99.90;;;;;;4933406;29;19927;-70
2022/12/13 13:13:44;;;;;;;;;;;3.20;99.90;;;;;;4943568;29;19926;-69
2022/12/13 13:16:26;;;;;;;;;;;3.10;99.90;;;;;;4946589;29;19970;-70
2022/12/13 13:18:54;;;;;;;;;;;3.00;99.90;;;;;;4930589;29;19927;-70
2022/12/13 13:21:34;;;;;;;;;;;3.00;99.90;;;;;;4930252;29;19986;-69
2022/12/13 13:24:05;;;;;;;;;;;3.10;99.90;;;;;;4931706;29;19926;-70
2022/12/13 13:26:33;;;;;;;;;;;2.90;99.90;;;;;;4933440;29;19939;-69
2022/12/13 13:29:14;;;;;;;;;;;2.60;99.90;;;;;;4947270;28;19933;-69
2022/12/13 13:31:55;;;;;;;;;;;2.40;99.90;;;;;;4938620;29;20291;-69
2022/12/13 13:34:26;;;;;;;;;;;2.10;99.90;;;;;;4930398;29;19927;-70
2022/12/13 13:36:55;;;;;;;;;;;1.90;99.90;;;;;;4929531;29;20464;-70
2022/12/13 13:39:37;;;;;;;;;;;1.90;99.90;;;;;;4935482;29;20022;-69
2022/12/13 13:42:17;;;;;;;;;;;1.90;99.90;;;;;;4929570;29;19927;-70
2022/12/13 13:44:54;;;;;;;;;;;1.80;99.90;;;;;;4934415;29;20309;-69
2022/12/13 13:47:37;;;;;;;;;;;1.70;99.90;;;;;;4935077;29;19926;-70
2022/12/13 13:50:18;;;;;;;;;;;1.40;99.90;;;;;;4932956;29;20395;-70
2022/12/13 13:52:53;;;;;;;;;;;1.40;99.90;;;;;;4936733;29;19964;-70
2022/12/13 13:55:26;;;;;;;;;;;1.30;99.90;;;;;;4926434;29;19964;-70
2022/12/13 13:58:11;;;;;;;;;;;1.20;99.90;;;;;;4925092;29;19937;-70
2022/12/13 14:00:48;;;;;;;;;;;1.10;99.90;;;;;;4939086;28;19927;-70
2022/12/13 14:03:36;;;;;;;;;;;1.00;99.90;;;;;;4934388;29;20370;-69
2022/12/13 14:06:23;;;;;;;;;;;1.00;99.90;;;;;;4932983;29;19933;-68
2022/12/13 14:09:10;;;;;;;;;;;0.90;99.90;;;;;;4931855;29;19971;-70
2022/12/13 14:11:57;;;;;;;;;;;0.90;99.90;;;;;;4933599;29;19927;-69
2022/12/13 14:14:50;;;;;;;;;;;0.80;99.90;;;;;;4933955;29;20302;-69
2022/12/13 14:17:38;;;;;;;;;;;0.70;99.90;;;;;;4878576;29;19986;-70
2022/12/13 14:20:15;;;;;;;;;;;0.60;99.90;;;;;;4931528;29;19934;-69
2022/12/13 14:22:45;;;;;;;;;;;0.50;99.90;;;;;;4928411;29;20462;-69
2022/12/13 14:25:24;;;;;;;;;;;0.50;99.90;;;;;;4934222;29;19926;-69
2022/12/13 14:27:53;;;;;;;;;;;0.40;99.90;;;;;;4928209;29;20305;-69
2022/12/13 14:30:21;;;;;;;;;;;0.40;99.90;;;;;;4934467;29;19927;-70
2022/12/13 14:32:50;;;;;;;;;;;0.30;99.90;;;;;;4927939;29;20449;-68
2022/12/13 14:35:25;;;;;;;;;;;0.20;99.90;;;;;;4929699;29;20009;-68
2022/12/13 14:37:57;;;;;;;;;;;0.20;99.90;;;;;;4929310;29;20291;-68
2022/12/13 14:40:26;;;;;;;;;;;0.20;99.90;;;;;;4936352;29;20030;-69
2022/12/13 14:42:54;;;;;;;;;;;0.10;99.90;;;;;;4934537;29;20394;-69
2022/12/13 14:45:22;;;;;;;;;;;0.10;99.90;;;;;;4933689;29;19941;-69
2022/12/13 14:47:49;;;;;;;;;;;0.00;99.90;;;;;;4931803;29;19927;-69
2022/12/13 14:50:17;;;;;;;;;;;0.00;99.90;;;;;;4935140;29;19927;-69
2022/12/13 14:52:46;;;;;;;;;;;0.00;99.90;;;;;;4939502;29;19942;-69
2022/12/13 14:55:21;;;;;;;;;;;0.00;99.90;;;;;;4930981;29;19927;-68
2022/12/13 14:57:52;;;;;;;;;;;-0.10;99.90;;;;;;4930833;29;19935;-69
2022/12/13 15:00:24;;;;;;;;;;;-0.20;99.90;;;;;;4932160;29;20398;-69
2022/12/13 15:02:52;;;;;;;;;;;-0.20;99.90;;;;;;4934516;29;20017;-69
2022/12/13 15:05:24;;;;;;;;;;;-0.20;99.90;;;;;;4931356;29;20374;-69
2022/12/13 15:07:52;;;;;;;;;;;-0.30;99.90;;;;;;4932898;29;20353;-70
2022/12/13 15:10:21;;;;;;;;;;;-0.40;99.90;;;;;;4930635;29;19927;-69
2022/12/13 15:12:48;;;;;;;;;;;-0.40;99.90;;;;;;4929279;29;19942;-69
2022/12/13 15:15:20;;;;;;;;;;;-0.50;99.90;;;;;;4933902;29;19935;-70
2022/12/13 15:17:47;;;;;;;;;;;-0.50;99.90;;;;;;4932563;29;19942;-68
2022/12/13 15:20:24;;;;;;;;;;;-0.70;99.90;;;;;;4931511;29;20374;-69
2022/12/13 15:22:58;;;;;;;;;;;-0.80;99.90;;;;;;4930157;29;20453;-68
2022/12/13 15:25:25;;;;;;;;;;;-0.80;99.90;;;;;;4932656;29;20363;-69
2022/12/13 15:27:54;;;;;;;;;;;-0.80;99.90;;;;;;4936486;29;19930;-68
2022/12/13 15:30:21;;;;;;;;;;;-0.90;99.90;;;;;;4930630;29;19933;-71
2022/12/13 15:33:09;;;;;;;;;;;-0.90;99.90;;;;;;4933422;29;19931;-71
2022/12/13 15:35:36;;;;;;;;;;;-1.00;99.90;;;;;;4930810;29;19930;-72
2022/12/13 15:38:05;;;;;;;;;;;-1.00;99.90;;;;;;4930975;29;19930;-70
2022/12/13 15:40:31;;;;;;;;;;;-1.10;99.90;;;;;;4935838;29;19926;-69
2022/12/13 15:42:58;;;;;;;;;;;-1.10;99.90;;;;;;4929716;29;19938;-70
2022/12/13 15:45:27;;;;;;;;;;;-1.10;99.90;;;;;;4935754;29;20313;-69
2022/12/13 15:47:54;;;;;;;;;;;-1.20;99.90;;;;;;4938673;29;20479;-69
2022/12/13 15:50:32;;;;;;;;;;;-1.20;99.90;;;;;;4937196;29;19990;-69
2022/12/13 15:53:01;;;;;;;;;;;-1.20;99.90;;;;;;4934137;29;19927;-69
2022/12/13 15:55:34;;;;;;;;;;;-1.30;99.90;;;;;;4933378;29;19933;-68
2022/12/13 15:58:01;;;;;;;;;;;-1.30;99.90;;;;;;4931899;29;19933;-69
2022/12/13 16:00:28;;;;;;;;;;;-1.20;99.90;;;;;;4932722;29;20014;-69
2022/12/13 16:02:57;;;;;;;;;;;-1.20;99.90;;;;;;4963804;23;19926;-68
2022/12/13 16:05:26;;;;;;;;;;;-1.20;99.90;;;;;;4946882;28;20444;-67
2022/12/13 16:07:52;;;;;;;;;;;-1.30;99.90;;;;;;4946750;29;19953;-68
2022/12/13 16:10:20;;;;;;;;;;;-1.20;99.90;;;;;;4942131;28;19926;-72
2022/12/13 16:12:49;;;;;;;;;;;-1.20;99.90;;;;;;4946771;29;19962;-68
2022/12/13 16:15:17;;;;;;;;;;;-1.30;99.90;;;;;;4941107;28;20029;-68
2022/12/13 16:17:43;;;;;;;;;;;-1.30;99.90;;;;;;4944990;28;19926;-68
2022/12/13 16:20:12;;;;;;;;;;;-1.30;99.90;;;;;;4945335;28;20017;-68
2022/12/13 16:22:39;;;;;;;;;;;-1.20;99.90;;;;;;4950392;29;19958;-68
2022/12/13 16:25:06;;;;;;;;;;;-1.30;99.90;;;;;;4950812;28;19994;-68
2022/12/13 16:27:32;;;;;;;;;;;-1.30;99.90;;;;;;4951389;28;19930;-69
2022/12/13 16:30:00;;;;;;;;;;;-1.30;99.90;;;;;;4948496;29;20025;-69
2022/12/13 16:32:27;;;;;;;;;;;-1.30;99.90;;;;;;4950629;28;19926;-68
2022/12/13 16:34:53;;;;;;;;;;;-1.30;99.90;;;;;;4961795;28;19976;-67
2022/12/13 16:37:25;;;;;;;;;;;-1.30;99.90;;;;;;4951085;28;19929;-67
2022/12/13 16:39:52;;;;;;;;;;;-1.40;99.90;;;;;;4954886;28;20014;-67
2022/12/13 16:42:19;;;;;;;;;;;-1.40;99.90;;;;;;4954205;28;19926;-68
2022/12/13 16:44:46;;;;;;;;;;;-1.40;99.90;;;;;;4958390;28;19927;-68
2022/12/13 16:47:15;;;;;;;;;;;-1.40;99.90;;;;;;4952488;29;19927;-67
2022/12/13 16:49:43;;;;;;;;;;;-1.40;99.90;;;;;;4959393;28;19926;-68
2022/12/13 16:52:10;;;;;;;;;;;-1.40;99.90;;;;;;4962390;28;19985;-65
2022/12/13 16:54:37;;;;;;;;;;;-1.40;99.90;;;;;;4952722;29;19926;-68
2022/12/13 16:57:04;;;;;;;;;;;-1.40;99.90;;;;;;4954981;28;19927;-67
2022/12/13 16:59:30;;;;;;;;;;;-1.40;99.90;;;;;;4961218;28;19927;-68
2022/12/13 17:01:58;;;;;;;;;;;-1.40;99.90;;;;;;4947786;28;20005;-77
2022/12/13 17:04:26;;;;;;;;;;;-1.40;99.90;;;;;;4947756;28;19981;-69
2022/12/13 17:06:53;;;;;;;;;;;-1.40;99.90;;;;;;4951717;28;19933;-74
2022/12/13 17:09:20;;;;;;;;;;;-1.40;99.90;;;;;;4944069;29;19931;-78
2022/12/13 17:11:47;;;;;;;;;;;-1.40;99.90;;;;;;4962889;28;20397;-73
2022/12/13 17:14:14;;;;;;;;;;;-1.30;99.90;;;;;;4958862;28;20385;-67
2022/12/13 17:16:41;;;;;;;;;;;-1.30;99.90;;;;;;4963498;28;20514;-67
2022/12/13 17:19:09;;;;;;;;;;;-1.30;99.90;;;;;;4963404;28;19927;-68
2022/12/13 17:21:37;;;;;;;;;;;-1.40;99.90;;;;;;4962016;28;19962;-67
2022/12/13 17:24:04;;;;;;;;;;;-1.50;99.90;;;;;;4947974;28;19930;-69
2022/12/13 17:26:33;;;;;;;;;;;-1.50;99.90;;;;;;4946761;29;19930;-67
2022/12/13 17:29:00;;;;;;;;;;;-1.50;99.90;;;;;;4962048;28;20301;-68
2022/12/13 17:31:27;;;;;;;;;;;-1.50;99.90;;;;;;4945241;29;20317;-69
2022/12/13 17:33:56;;;;;;;;;;;-1.60;99.90;;;;;;4960407;28;19926;-68
2022/12/13 17:36:25;;;;;;;;;;;-1.60;99.90;;;;;;4944471;29;19982;-67
2022/12/13 17:38:53;;;;;;;;;;;-1.50;99.90;;;;;;4948676;29;19933;-68
2022/12/13 17:41:19;;;;;;;;;;;-1.50;99.90;;;;;;4959719;28;19934;-67
2022/12/13 17:43:46;;;;;;;;;;;-1.50;99.90;;;;;;4948431;29;19994;-67
2022/12/13 17:46:14;;;;;;;;;;;-1.50;99.90;;;;;;4949369;28;19938;-68
2022/12/13 17:48:41;;;;;;;;;;;-1.50;99.90;;;;;;4961967;28;20306;-68
2022/12/13 17:51:08;;;;;;;;;;;-1.50;99.90;;;;;;4946738;29;19926;-68
2022/12/13 17:53:35;;;;;;;;;;;-1.60;99.90;;;;;;4945382;29;20350;-68
2022/12/13 17:56:06;;;;;;;;;;;-1.50;99.90;;;;;;4960823;28;20029;-69
2022/12/13 17:58:34;;;;;;;;;;;-1.50;99.90;;;;;;4959939;28;19931;-69
2022/12/13 18:01:09;;;;;;;;;;;-1.50;99.90;;;;;;4961679;28;20308;-68
2022/12/13 18:03:36;;;;;;;;;;;-1.60;99.90;;;;;;4954515;29;19973;-69
2022/12/13 18:06:02;;;;;;;;;;;-1.50;99.90;;;;;;4952019;29;19927;-69
2022/12/13 18:08:29;;;;;;;;;;;-1.50;99.90;;;;;;4953983;28;19934;-68
2022/12/13 18:10:56;;;;;;;;;;;-1.60;99.90;;;;;;4950505;29;20029;-68
2022/12/13 18:13:26;;;;;;;;;;;-1.60;99.90;;;;;;4946495;29;19981;-69
2022/12/13 18:15:52;;;;;;;;;;;-1.60;99.90;;;;;;4950452;29;20393;-68
2022/12/13 18:18:20;;;;;;;;;;;-1.50;99.90;;;;;;4950539;28;19930;-66
2022/12/13 18:20:47;;;;;;;;;;;-1.50;99.90;;;;;;4942549;29;19927;-69
2022/12/13 18:23:13;;;;;;;;;;;-1.50;99.90;;;;;;4953243;28;19978;-68
2022/12/13 18:25:41;;;;;;;;;;;-1.60;99.90;;;;;;4962285;28;19930;-69
2022/12/13 18:28:08;;;;;;;;;;;-1.50;99.90;;;;;;4955435;28;19926;-68
2022/12/13 18:30:37;;;;;;;;;;;-1.50;99.90;;;;;;4953607;28;19926;-68
2022/12/13 18:33:04;;;;;;;;;;;-1.50;99.90;;;;;;4960645;28;20393;-68
2022/12/13 18:35:31;;;;;;;;;;;-1.50;99.90;;;;;;4953602;28;19934;-68
2022/12/13 18:37:58;;;;;;;;;;;-1.60;99.90;;;;;;4953442;28;19974;-69